createdAt,value
2023-03-03T00:00:50.682Z,7.28
2023-03-03T00:03:22.445Z,7.47
2023-03-03T00:05:50.397Z,7.47
2023-03-03T00:08:19.120Z,7.53
2023-03-03T00:10:46.889Z,7.73
2023-03-03T00:13:16.450Z,7.78
2023-03-03T00:15:43.875Z,7.70
2023-03-03T00:18:19.788Z,7.88
2023-03-03T00:20:53.133Z,7.90
2023-03-03T00:23:25.581Z,7.50
2023-03-03T00:25:54.178Z,7.22
2023-03-03T00:28:21.419Z,7.68
2023-03-03T00:30:48.810Z,7.05
2023-03-03T00:33:35.733Z,7.43
2023-03-03T00:36:21.996Z,7.20
2023-03-03T00:38:49.552Z,6.97
2023-03-03T00:41:27.599Z,7.32
2023-03-03T00:43:55.446Z,6.15
2023-03-03T00:46:23.743Z,7.50
2023-03-03T00:48:51.541Z,7.23
2023-03-03T00:51:19.006Z,7.05
2023-03-03T00:53:46.468Z,6.72
2023-03-03T00:56:13.888Z,7.65
2023-03-03T00:58:41.346Z,7.80
2023-03-03T01:01:09.030Z,7.10
2023-03-03T01:03:36.565Z,8.38
2023-03-03T01:06:03.811Z,8.30
2023-03-03T01:08:30.973Z,7.68
2023-03-03T01:10:59.514Z,7.72
2023-03-03T01:13:32.411Z,8.07
2023-03-03T01:16:00.510Z,6.97
2023-03-03T01:18:31.114Z,8.30
2023-03-03T01:20:58.452Z,8.25
2023-03-03T01:23:25.845Z,8.20
2023-03-03T01:25:52.980Z,7.97
2023-03-03T01:28:20.433Z,7.80
2023-03-03T01:30:47.752Z,8.15
2023-03-03T01:33:15.029Z,8.70
2023-03-03T01:35:46.421Z,8.55
2023-03-03T01:38:14.151Z,8.23
2023-03-03T01:40:41.882Z,7.85
2023-03-03T01:43:09.252Z,8.93
2023-03-03T01:45:45.858Z,8.70
2023-03-03T01:48:19.348Z,8.73
2023-03-03T01:50:48.669Z,9.20
2023-03-03T01:53:31.504Z,8.00
2023-03-03T01:55:58.921Z,7.80
2023-03-03T01:58:31.209Z,8.38
2023-03-03T02:01:01.386Z,9.15
2023-03-03T02:03:29.219Z,8.03
2023-03-03T02:05:58.491Z,8.23
2023-03-03T02:08:28.671Z,8.32
2023-03-03T02:10:56.732Z,8.50
2023-03-03T02:13:24.191Z,8.02
2023-03-03T02:15:51.735Z,8.17
2023-03-03T02:18:20.392Z,9.00
2023-03-03T02:20:47.595Z,8.90
2023-03-03T02:23:18.027Z,8.18
2023-03-03T02:25:59.158Z,8.73
2023-03-03T02:28:31.725Z,9.13
2023-03-03T02:31:00.050Z,9.15
2023-03-03T02:33:28.190Z,8.77
2023-03-03T02:35:55.612Z,8.07
2023-03-03T02:38:26.763Z,7.95
2023-03-03T02:41:09.240Z,8.80
2023-03-03T02:43:47.658Z,8.30
2023-03-03T02:46:14.958Z,7.93
2023-03-03T02:48:42.358Z,7.45
2023-03-03T02:51:09.686Z,8.32
2023-03-03T02:53:36.888Z,7.97
2023-03-03T02:56:04.622Z,8.50
2023-03-03T02:58:31.956Z,8.05
2023-03-03T03:00:59.313Z,8.40
2023-03-03T03:03:26.538Z,7.00
2023-03-03T03:05:53.864Z,8.07
2023-03-03T03:08:21.431Z,7.13
2023-03-03T03:10:49.501Z,7.65
2023-03-03T03:13:16.859Z,6.75
2023-03-03T03:15:46.614Z,7.10
2023-03-03T03:18:14.265Z,7.77
2023-03-03T03:20:41.835Z,7.55
2023-03-03T03:23:09.430Z,8.18
2023-03-03T03:25:42.843Z,7.53
2023-03-03T03:28:10.218Z,7.00
2023-03-03T03:30:37.552Z,8.00
2023-03-03T03:33:04.965Z,8.38
2023-03-03T03:35:33.538Z,8.13
2023-03-03T03:38:00.856Z,7.95
2023-03-03T03:40:28.255Z,8.00
2023-03-03T03:42:55.866Z,8.30
2023-03-03T03:45:24.509Z,8.25
2023-03-03T03:47:51.757Z,7.97
2023-03-03T03:50:18.980Z,8.20
2023-03-03T03:52:46.255Z,8.52
2023-03-03T03:55:13.535Z,8.50
2023-03-03T03:57:41.157Z,8.27
2023-03-03T04:00:09.075Z,8.45
2023-03-03T04:02:36.678Z,8.63
2023-03-03T04:05:04.630Z,8.60
2023-03-03T04:07:31.872Z,8.53
2023-03-03T04:09:59.126Z,8.38
2023-03-03T04:12:26.602Z,7.28
2023-03-03T04:14:53.945Z,7.63
2023-03-03T04:17:22.753Z,7.53
2023-03-03T04:19:50.258Z,8.37
2023-03-03T04:22:17.559Z,7.47
2023-03-03T04:24:45.029Z,7.40
2023-03-03T04:27:13.541Z,8.07
2023-03-03T04:29:41.185Z,8.05
2023-03-03T04:32:08.861Z,8.63
2023-03-03T04:34:36.184Z,8.90
2023-03-03T04:37:03.586Z,8.73
2023-03-03T04:39:30.794Z,8.27
2023-03-03T04:41:59.353Z,9.15
2023-03-03T04:44:26.590Z,9.40
2023-03-03T04:46:54.011Z,8.77
2023-03-03T04:49:21.189Z,9.00
2023-03-03T04:51:48.487Z,7.97
2023-03-03T04:54:15.653Z,6.93
2023-03-03T04:56:43.069Z,6.70
2023-03-03T04:59:10.592Z,6.82
2023-03-03T05:01:38.313Z,6.28
2023-03-03T05:04:05.605Z,6.22
2023-03-03T05:06:33.037Z,6.00
2023-03-03T05:09:00.341Z,7.27
2023-03-03T05:11:27.694Z,7.15
2023-03-03T05:13:55.058Z,6.18
2023-03-03T05:16:22.773Z,6.97
2023-03-03T05:18:50.167Z,7.10
2023-03-03T05:21:17.426Z,6.33
2023-03-03T05:23:44.695Z,7.00
2023-03-03T05:26:11.943Z,6.53
2023-03-03T05:28:39.242Z,6.07
2023-03-03T05:31:06.711Z,6.78
2023-03-03T05:33:34.072Z,6.27
2023-03-03T05:36:01.628Z,6.35
2023-03-03T05:38:28.811Z,6.65
2023-03-03T05:40:56.166Z,6.18
2023-03-03T05:43:24.708Z,7.20
2023-03-03T05:45:56.404Z,5.97
2023-03-03T05:48:23.807Z,6.53
2023-03-03T05:50:51.165Z,6.78
2023-03-03T05:53:20.064Z,7.07
2023-03-03T05:55:47.276Z,6.45
2023-03-03T05:58:14.688Z,6.53
2023-03-03T06:00:41.915Z,6.22
2023-03-03T06:03:09.187Z,6.57
2023-03-03T06:05:36.525Z,6.20
2023-03-03T06:08:03.830Z,6.20
2023-03-03T06:10:31.238Z,6.80
2023-03-03T06:12:58.979Z,5.68
2023-03-03T06:15:26.274Z,5.75
2023-03-03T06:17:56.112Z,6.40
2023-03-03T06:20:23.480Z,5.57
2023-03-03T06:22:50.879Z,6.73
2023-03-03T06:25:18.420Z,5.63
2023-03-03T06:27:45.816Z,5.57
2023-03-03T06:30:13.889Z,5.57
2023-03-03T06:32:41.414Z,6.70
2023-03-03T06:35:08.850Z,6.33
2023-03-03T06:37:36.077Z,6.38
2023-03-03T06:40:03.326Z,6.18
2023-03-03T06:42:30.574Z,6.35
2023-03-03T06:44:57.941Z,6.40
2023-03-03T06:47:25.262Z,6.43
2023-03-03T06:49:52.534Z,6.25
2023-03-03T06:52:21.809Z,5.82
2023-03-03T06:54:49.168Z,6.38
2023-03-03T06:57:28.152Z,6.63
2023-03-03T06:59:56.700Z,6.03
2023-03-03T07:02:24.013Z,6.37
2023-03-03T07:04:51.275Z,6.55
2023-03-03T07:07:24.879Z,6.00
2023-03-03T07:09:53.681Z,6.82
2023-03-03T07:12:22.652Z,6.63
2023-03-03T07:14:55.593Z,6.53
2023-03-03T07:17:24.897Z,6.10
2023-03-03T07:19:52.504Z,6.15
2023-03-03T07:22:21.184Z,6.50
2023-03-03T07:24:53.206Z,5.93
2023-03-03T07:27:20.640Z,5.85
2023-03-03T07:29:49.294Z,6.88
2023-03-03T07:32:28.056Z,6.68
2023-03-03T07:34:56.810Z,6.05
2023-03-03T07:37:32.079Z,6.40
2023-03-03T07:39:59.874Z,6.40
2023-03-03T07:42:28.882Z,6.05
2023-03-03T07:44:58.348Z,6.05
2023-03-03T07:47:30.617Z,5.57
2023-03-03T07:49:59.359Z,5.80
2023-03-03T07:52:40.396Z,5.72
2023-03-03T07:55:26.201Z,5.75
2023-03-03T07:57:54.950Z,5.78
2023-03-03T08:00:22.338Z,5.47
2023-03-03T08:02:59.605Z,6.15
2023-03-03T08:05:37.438Z,6.20
2023-03-03T08:08:11.152Z,5.47
2023-03-03T08:10:38.371Z,4.93
2023-03-03T08:13:19.450Z,5.72
2023-03-03T08:16:00.729Z,6.10
2023-03-03T08:18:36.877Z,4.95
2023-03-03T08:21:09.658Z,5.60
2023-03-03T08:23:37.104Z,6.40
2023-03-03T08:26:04.528Z,5.03
2023-03-03T08:28:31.718Z,5.60
2023-03-03T08:31:14.249Z,6.05
2023-03-03T08:33:44.430Z,5.30
2023-03-03T08:36:12.160Z,5.80
2023-03-03T08:38:39.953Z,5.78
2023-03-03T08:41:07.415Z,5.93
2023-03-03T08:43:34.853Z,5.20
2023-03-03T08:46:02.956Z,5.80
2023-03-03T08:48:30.593Z,5.40
2023-03-03T08:50:57.775Z,5.55
2023-03-03T08:53:26.418Z,5.45
2023-03-03T08:55:53.604Z,5.65
2023-03-03T08:58:30.393Z,5.38
2023-03-03T09:01:01.893Z,5.55
2023-03-03T09:03:29.894Z,5.72
2023-03-03T09:05:57.166Z,5.60
2023-03-03T09:08:24.446Z,5.15
2023-03-03T09:10:51.822Z,5.47
2023-03-03T09:13:20.073Z,6.13
2023-03-03T09:15:49.110Z,5.43
2023-03-03T09:18:16.534Z,5.10
2023-03-03T09:20:44.067Z,5.18
2023-03-03T09:23:33.741Z,4.93
2023-03-03T09:26:19.918Z,5.25
2023-03-03T09:28:47.151Z,5.22
2023-03-03T09:31:23.012Z,5.03
2023-03-03T09:33:51.925Z,4.50
2023-03-03T09:36:27.003Z,4.38
2023-03-03T09:38:55.862Z,5.00
2023-03-03T09:41:29.265Z,4.65
2023-03-03T09:44:19.320Z,4.60
2023-03-03T09:46:49.661Z,4.85
2023-03-03T09:49:33.834Z,4.38
2023-03-03T09:52:08.803Z,4.65
2023-03-03T09:54:54.767Z,5.20
2023-03-03T09:57:26.043Z,4.60
2023-03-03T10:00:05.372Z,3.72
2023-03-03T10:02:39.043Z,4.40
2023-03-03T10:05:14.627Z,4.22
2023-03-03T10:08:01.688Z,3.80
2023-03-03T10:10:29.003Z,3.90
2023-03-03T10:13:06.651Z,3.63
2023-03-03T10:15:50.552Z,3.65
2023-03-03T10:18:25.851Z,3.45
2023-03-03T10:21:22.586Z,3.60
2023-03-03T10:24:15.211Z,3.55
2023-03-03T10:27:13.061Z,3.55
2023-03-03T10:29:41.386Z,3.50
2023-03-03T10:32:27.386Z,4.13
2023-03-03T10:35:07.859Z,3.38
2023-03-03T10:37:47.525Z,3.15
2023-03-03T10:40:50.063Z,2.92
2023-03-03T10:43:40.445Z,2.67
2023-03-03T10:46:15.632Z,2.60
2023-03-03T10:48:48.912Z,2.55
2023-03-03T10:51:16.093Z,2.25
2023-03-03T10:53:43.322Z,2.40
2023-03-03T10:56:23.378Z,2.33
2023-03-03T10:58:50.550Z,2.15
2023-03-03T11:01:17.973Z,2.60
2023-03-03T11:04:03.376Z,2.88
2023-03-03T11:06:38.354Z,2.03
2023-03-03T11:09:21.155Z,2.47
2023-03-03T11:12:11.293Z,1.80
2023-03-03T11:14:51.034Z,2.10
2023-03-03T11:17:23.892Z,1.80
2023-03-03T11:20:06.754Z,1.70
2023-03-03T11:22:52.927Z,1.50
2023-03-03T11:25:27.335Z,1.48
2023-03-03T11:27:57.537Z,1.35
2023-03-03T11:30:45.714Z,2.40
2023-03-03T11:33:21.659Z,1.40
2023-03-03T11:35:57.303Z,1.30
2023-03-03T11:38:47.725Z,1.40
2023-03-03T11:41:23.224Z,1.60
2023-03-03T11:44:09.329Z,1.85
2023-03-03T11:46:59.023Z,1.30
2023-03-03T11:49:29.872Z,1.50
2023-03-03T11:52:02.693Z,1.30
2023-03-03T11:54:43.731Z,1.80
2023-03-03T11:57:22.671Z,1.52
2023-03-03T11:59:56.944Z,1.50
2023-03-03T12:02:28.565Z,1.30
2023-03-03T12:05:22.121Z,1.45
2023-03-03T12:08:08.113Z,1.30
2023-03-03T12:10:42.280Z,1.20
2023-03-03T12:13:22.494Z,1.35
2023-03-03T12:15:56.572Z,1.20
2023-03-03T12:18:50.239Z,1.45
2023-03-03T12:21:17.535Z,1.15
2023-03-03T12:23:45.216Z,1.25
2023-03-03T12:26:23.114Z,1.10
2023-03-03T12:28:55.696Z,1.20
2023-03-03T12:31:49.127Z,1.15
2023-03-03T12:34:35.408Z,1.27
2023-03-03T12:37:07.964Z,1.13
2023-03-03T12:39:41.233Z,1.10
2023-03-03T12:42:11.578Z,1.95
2023-03-03T12:44:50.991Z,1.00
2023-03-03T12:47:23.173Z,1.08
2023-03-03T12:50:09.527Z,1.00
2023-03-03T12:52:49.144Z,0.80
2023-03-03T12:55:16.287Z,0.90
2023-03-03T12:58:02.421Z,1.10
2023-03-03T13:00:30.172Z,1.20
2023-03-03T13:03:31.962Z,1.20
2023-03-03T13:06:11.956Z,1.20
2023-03-03T13:08:51.480Z,1.30
2023-03-03T13:11:18.625Z,1.15
2023-03-03T13:13:53.438Z,1.10
2023-03-03T13:16:40.649Z,1.40
2023-03-03T13:19:17.952Z,1.30
2023-03-03T13:21:51.568Z,1.17
2023-03-03T13:24:29.212Z,1.17
2023-03-03T13:26:59.245Z,0.90
2023-03-03T13:29:42.122Z,1.10
2023-03-03T13:32:13.196Z,1.10
2023-03-03T13:34:52.209Z,1.13
2023-03-03T13:37:23.671Z,1.30
2023-03-03T13:40:08.822Z,2.55
2023-03-03T13:42:41.508Z,2.05
2023-03-03T13:45:27.506Z,1.10
2023-03-03T13:48:04.499Z,1.10
2023-03-03T13:50:31.617Z,1.20
2023-03-03T13:53:17.598Z,1.20
2023-03-03T13:55:46.082Z,1.30
2023-03-03T13:58:28.197Z,1.50
2023-03-03T14:00:55.648Z,1.60
2023-03-03T14:03:23.267Z,3.28
2023-03-03T14:05:58.363Z,6.43
2023-03-03T14:08:28.818Z,2.22
2023-03-03T14:11:08.080Z,3.43
2023-03-03T14:13:43.702Z,1.90
2023-03-03T14:16:14.088Z,2.10
2023-03-03T14:19:00.017Z,2.53
2023-03-03T14:21:30.607Z,1.30
2023-03-03T14:24:05.206Z,2.33
2023-03-03T14:26:32.480Z,1.27
2023-03-03T14:29:17.294Z,1.10
2023-03-03T14:31:44.706Z,2.40
2023-03-03T14:34:24.170Z,1.40
2023-03-03T14:36:56.414Z,2.47
2023-03-03T14:39:34.858Z,2.22
2023-03-03T14:42:13.004Z,5.47
2023-03-03T14:44:47.655Z,5.25
2023-03-03T14:47:22.205Z,3.35
2023-03-03T14:49:50.791Z,2.00
2023-03-03T14:52:18.167Z,2.15
2023-03-03T14:54:56.268Z,2.95
2023-03-03T14:57:34.523Z,2.50
2023-03-03T15:00:07.108Z,2.72
2023-03-03T15:02:38.489Z,3.20
2023-03-03T15:05:20.117Z,1.40
2023-03-03T15:07:50.049Z,2.60
2023-03-03T15:10:28.050Z,2.28
2023-03-03T15:12:55.438Z,2.20
2023-03-03T15:15:24.049Z,1.65
2023-03-03T15:17:51.354Z,1.25
2023-03-03T15:20:24.743Z,1.73
2023-03-03T15:22:55.033Z,1.00
2023-03-03T15:25:49.717Z,1.02
2023-03-03T15:28:31.958Z,13.55
2023-03-03T15:31:01.106Z,13.32
2023-03-03T15:33:47.280Z,3.03
2023-03-03T15:36:14.483Z,2.80
2023-03-03T15:39:03.730Z,1.90
2023-03-03T15:41:33.948Z,1.40
2023-03-03T15:44:14.821Z,1.60
2023-03-03T15:46:55.026Z,1.00
2023-03-03T15:49:41.070Z,1.02
2023-03-03T15:52:13.529Z,1.10
2023-03-03T15:54:55.475Z,1.40
2023-03-03T15:57:26.832Z,1.15
2023-03-03T15:59:54.250Z,1.10
2023-03-03T16:02:23.107Z,1.90
2023-03-03T16:05:06.632Z,1.10
2023-03-03T16:07:53.275Z,2.03
2023-03-03T16:10:30.312Z,0.60
2023-03-03T16:13:06.399Z,1.73
2023-03-03T16:15:42.742Z,1.42
2023-03-03T16:18:20.750Z,0.90
2023-03-03T16:20:57.426Z,1.10
2023-03-03T16:23:44.951Z,3.38
2023-03-03T16:26:19.338Z,15.77
2023-03-03T16:29:01.152Z,4.45
2023-03-03T16:31:41.731Z,3.10
2023-03-03T16:34:18.279Z,2.65
2023-03-03T16:36:53.075Z,2.80
2023-03-03T16:39:43.582Z,1.90
2023-03-03T16:42:24.142Z,2.03
2023-03-03T16:45:07.195Z,0.82
2023-03-03T16:48:00.860Z,6.30
2023-03-03T16:50:40.191Z,4.18
2023-03-03T16:53:19.692Z,1.70
2023-03-03T16:55:51.645Z,1.90
2023-03-03T16:58:31.377Z,1.40
2023-03-03T17:00:58.767Z,1.35
2023-03-03T17:03:29.019Z,1.80
2023-03-03T17:06:04.876Z,1.00
2023-03-03T17:08:51.024Z,1.17
2023-03-03T17:11:36.936Z,1.40
2023-03-03T17:14:10.489Z,1.20
2023-03-03T17:16:55.946Z,1.30
2023-03-03T17:19:41.750Z,1.60
2023-03-03T17:22:09.375Z,1.30
2023-03-03T17:24:39.696Z,1.65
2023-03-03T17:27:16.189Z,1.80
2023-03-03T17:29:51.527Z,1.40
2023-03-03T17:32:26.539Z,1.17
2023-03-03T17:35:05.159Z,1.60
2023-03-03T17:37:40.822Z,2.47
2023-03-03T17:40:27.116Z,7.72
2023-03-03T17:43:13.150Z,4.72
2023-03-03T17:45:41.934Z,5.78
2023-03-03T17:48:09.259Z,10.77
2023-03-03T17:50:55.117Z,8.48
2023-03-03T17:53:41.332Z,2.78
2023-03-03T17:56:24.370Z,2.30
2023-03-03T17:59:07.065Z,2.85
2023-03-03T18:01:41.822Z,1.92
2023-03-03T18:04:22.934Z,2.30
2023-03-03T18:07:09.156Z,3.00
2023-03-03T18:09:42.050Z,3.78
2023-03-03T18:12:21.371Z,3.20
2023-03-03T18:14:58.994Z,3.60
2023-03-03T18:17:32.552Z,3.60
2023-03-03T18:20:11.989Z,4.37
2023-03-03T18:22:50.866Z,2.25
2023-03-03T18:25:19.571Z,3.08
2023-03-03T18:27:48.353Z,3.22
2023-03-03T18:30:20.607Z,2.85
2023-03-03T18:32:58.057Z,2.17
2023-03-03T18:35:34.503Z,2.88
2023-03-03T18:38:17.311Z,3.40
2023-03-03T18:40:50.620Z,2.35
2023-03-03T18:43:36.601Z,2.38
2023-03-03T18:46:04.033Z,1.47
2023-03-03T18:48:50.142Z,2.30
2023-03-03T18:51:35.918Z,2.17
2023-03-03T18:54:20.877Z,2.83
2023-03-03T18:57:05.147Z,2.20
2023-03-03T18:59:34.055Z,6.67
2023-03-03T19:02:13.571Z,3.22
2023-03-03T19:04:56.799Z,6.47
2023-03-03T19:07:29.814Z,1.75
2023-03-03T19:10:09.892Z,3.40
2023-03-03T19:12:46.858Z,3.67
2023-03-03T19:15:38.299Z,3.17
2023-03-03T19:18:19.345Z,4.40
2023-03-03T19:20:52.646Z,3.78
2023-03-03T19:23:21.789Z,2.88
2023-03-03T19:26:08.898Z,2.40
2023-03-03T19:28:49.060Z,2.85
2023-03-03T19:31:26.126Z,1.60
2023-03-03T19:33:57.230Z,1.75
2023-03-03T19:36:39.551Z,1.33
2023-03-03T19:39:25.882Z,2.10
2023-03-03T19:42:11.754Z,1.80
2023-03-03T19:44:43.981Z,1.95
2023-03-03T19:47:20.608Z,5.93
2023-03-03T19:49:54.180Z,11.45
2023-03-03T19:52:39.797Z,3.73
2023-03-03T19:55:13.641Z,2.80
2023-03-03T19:57:54.224Z,3.03
2023-03-03T20:00:30.601Z,2.58
2023-03-03T20:03:03.960Z,1.48
2023-03-03T20:05:57.718Z,1.90
2023-03-03T20:08:37.162Z,1.60
2023-03-03T20:11:26.096Z,3.13
2023-03-03T20:14:01.690Z,5.00
2023-03-03T20:16:28.980Z,5.70
2023-03-03T20:19:20.657Z,4.33
2023-03-03T20:22:06.604Z,2.97
2023-03-03T20:24:55.826Z,3.53
2023-03-03T20:27:23.250Z,4.85
2023-03-03T20:29:56.542Z,5.45
2023-03-03T20:32:42.678Z,11.30
2023-03-03T20:35:28.688Z,9.00
2023-03-03T20:37:55.862Z,3.65
2023-03-03T20:40:30.792Z,3.13
2023-03-03T20:43:03.302Z,3.90
2023-03-03T20:45:33.695Z,7.00
2023-03-03T20:48:19.731Z,2.58
2023-03-03T20:51:06.067Z,7.32
2023-03-03T20:53:45.555Z,10.98
2023-03-03T20:56:23.380Z,7.72
2023-03-03T20:58:58.259Z,3.20
2023-03-03T21:01:35.546Z,2.70
2023-03-03T21:04:22.801Z,2.30
2023-03-03T21:06:50.537Z,2.10
2023-03-03T21:09:29.179Z,2.13
2023-03-03T21:11:59.273Z,1.70
2023-03-03T21:14:28.083Z,2.50
2023-03-03T21:16:56.763Z,2.63
2023-03-03T21:19:26.039Z,2.45
2023-03-03T21:21:53.489Z,2.28
2023-03-03T21:24:20.863Z,2.07
2023-03-03T21:26:53.295Z,1.80
2023-03-03T21:29:25.097Z,2.60
2023-03-03T21:31:52.537Z,2.72
2023-03-03T21:34:25.939Z,2.10
2023-03-03T21:36:53.571Z,2.20
2023-03-03T21:39:37.486Z,1.88
2023-03-03T21:42:06.869Z,2.00
2023-03-03T21:44:35.549Z,1.90
2023-03-03T21:47:02.783Z,2.00
2023-03-03T21:49:30.356Z,1.67
2023-03-03T21:51:57.975Z,1.50
2023-03-03T21:54:25.477Z,2.90
2023-03-03T21:56:53.070Z,2.10
2023-03-03T21:59:20.611Z,1.92
2023-03-03T22:01:47.955Z,2.13
2023-03-03T22:04:15.349Z,2.20
2023-03-03T22:06:42.627Z,2.28
2023-03-03T22:09:10.001Z,2.45
2023-03-03T22:11:38.255Z,2.08
2023-03-03T22:14:05.424Z,2.33
2023-03-03T22:16:32.776Z,2.10
2023-03-03T22:19:02.638Z,1.60
2023-03-03T22:21:30.558Z,2.03
2023-03-03T22:23:58.132Z,1.92
2023-03-03T22:26:25.352Z,1.70
2023-03-03T22:28:52.615Z,1.52
2023-03-03T22:31:22.720Z,1.13
2023-03-03T22:33:50.366Z,1.55
2023-03-03T22:36:19.034Z,1.45
2023-03-03T22:38:47.040Z,1.30
2023-03-03T22:41:14.916Z,1.73
2023-03-03T22:43:42.269Z,1.52
2023-03-03T22:46:09.833Z,1.30
2023-03-03T22:48:37.943Z,1.63
2023-03-03T22:51:05.497Z,1.67
2023-03-03T22:53:32.846Z,1.30
2023-03-03T22:56:00.188Z,1.60
2023-03-03T22:58:27.355Z,1.15
2023-03-03T23:00:54.784Z,1.67
2023-03-03T23:03:22.297Z,1.20
2023-03-03T23:05:51.744Z,1.00
2023-03-03T23:08:20.370Z,1.08
2023-03-03T23:10:48.374Z,0.98
2023-03-03T23:13:15.733Z,1.38
2023-03-03T23:15:43.002Z,1.00
2023-03-03T23:18:10.296Z,1.00
2023-03-03T23:20:37.758Z,1.00
2023-03-03T23:23:05.194Z,1.00
2023-03-03T23:25:34.483Z,0.90
2023-03-03T23:28:02.997Z,1.10
2023-03-03T23:30:30.347Z,1.17
2023-03-03T23:32:57.580Z,0.90
2023-03-03T23:35:24.799Z,1.27
2023-03-03T23:37:52.114Z,1.45
2023-03-03T23:40:19.794Z,1.20
2023-03-03T23:42:46.966Z,1.00
2023-03-03T23:45:14.295Z,0.90
2023-03-03T23:47:41.766Z,1.20
2023-03-03T23:50:10.177Z,1.00
2023-03-03T23:52:37.751Z,1.07
2023-03-03T23:55:05.997Z,1.15
2023-03-03T23:57:34.556Z,1.40
